sensor_id;sensor_type;location;lat;lon;timestamp;P1;durP1;ratioP1;P2;durP2;ratioP2
21402;SDS011;10862;51.886;17.078;2023-03-15T00:00:45;12.07;;;11.57;;
21402;SDS011;10862;51.886;17.078;2023-03-15T00:03:11;12.93;;;12.33;;
21402;SDS011;10862;51.886;17.078;2023-03-15T00:05:48;14.23;;;13.53;;
21402;SDS011;10862;51.886;17.078;2023-03-15T00:08:14;13.77;;;13.17;;
21402;SDS011;10862;51.886;17.078;2023-03-15T00:10:40;14.27;;;13.67;;
21402;SDS011;10862;51.886;17.078;2023-03-15T00:13:07;12.50;;;12.00;;
21402;SDS011;10862;51.886;17.078;2023-03-15T00:15:33;14.00;;;13.40;;
21402;SDS011;10862;51.886;17.078;2023-03-15T00:17:59;14.17;;;13.57;;
21402;SDS011;10862;51.886;17.078;2023-03-15T00:20:27;13.33;;;12.73;;
21402;SDS011;10862;51.886;17.078;2023-03-15T00:22:53;13.53;;;12.93;;
21402;SDS011;10862;51.886;17.078;2023-03-15T00:25:19;16.03;;;15.33;;
21402;SDS011;10862;51.886;17.078;2023-03-15T00:27:45;13.67;;;13.07;;
21402;SDS011;10862;51.886;17.078;2023-03-15T00:30:10;13.23;;;12.63;;
21402;SDS011;10862;51.886;17.078;2023-03-15T00:32:36;15.00;;;14.30;;
21402;SDS011;10862;51.886;17.078;2023-03-15T00:35:02;14.07;;;13.47;;
21402;SDS011;10862;51.886;17.078;2023-03-15T00:37:28;13.27;;;12.67;;
21402;SDS011;10862;51.886;17.078;2023-03-15T00:39:55;12.70;;;12.17;;
21402;SDS011;10862;51.886;17.078;2023-03-15T00:42:21;14.03;;;13.43;;
21402;SDS011;10862;51.886;17.078;2023-03-15T00:44:51;13.60;;;13.00;;
21402;SDS011;10862;51.886;17.078;2023-03-15T00:47:19;14.87;;;14.17;;
21402;SDS011;10862;51.886;17.078;2023-03-15T00:49:45;14.37;;;13.77;;
21402;SDS011;10862;51.886;17.078;2023-03-15T00:52:11;14.27;;;13.57;;
21402;SDS011;10862;51.886;17.078;2023-03-15T00:54:36;14.30;;;13.70;;
21402;SDS011;10862;51.886;17.078;2023-03-15T00:57:02;12.33;;;11.83;;
21402;SDS011;10862;51.886;17.078;2023-03-15T00:59:28;13.93;;;13.23;;
21402;SDS011;10862;51.886;17.078;2023-03-15T01:02:02;12.13;;;11.63;;
21402;SDS011;10862;51.886;17.078;2023-03-15T01:04:29;12.10;;;11.60;;
21402;SDS011;10862;51.886;17.078;2023-03-15T01:06:56;12.17;;;11.67;;
21402;SDS011;10862;51.886;17.078;2023-03-15T01:09:22;14.43;;;13.17;;
21402;SDS011;10862;51.886;17.078;2023-03-15T01:11:48;11.23;;;10.73;;
21402;SDS011;10862;51.886;17.078;2023-03-15T01:14:14;14.90;;;14.20;;
21402;SDS011;10862;51.886;17.078;2023-03-15T01:16:40;15.57;;;14.87;;
21402;SDS011;10862;51.886;17.078;2023-03-15T01:19:06;16.13;;;15.43;;
21402;SDS011;10862;51.886;17.078;2023-03-15T01:21:31;14.20;;;13.60;;
21402;SDS011;10862;51.886;17.078;2023-03-15T01:23:57;13.70;;;13.10;;
21402;SDS011;10862;51.886;17.078;2023-03-15T01:26:23;14.57;;;13.90;;
21402;SDS011;10862;51.886;17.078;2023-03-15T01:28:49;10.73;;;10.27;;
21402;SDS011;10862;51.886;17.078;2023-03-15T01:31:17;12.87;;;12.27;;
21402;SDS011;10862;51.886;17.078;2023-03-15T01:33:45;12.87;;;12.27;;
21402;SDS011;10862;51.886;17.078;2023-03-15T01:36:11;15.77;;;14.43;;
21402;SDS011;10862;51.886;17.078;2023-03-15T01:38:37;13.03;;;12.43;;
21402;SDS011;10862;51.886;17.078;2023-03-15T01:41:02;11.57;;;11.07;;
21402;SDS011;10862;51.886;17.078;2023-03-15T01:43:29;12.43;;;11.87;;
21402;SDS011;10862;51.886;17.078;2023-03-15T01:48:39;11.17;;;10.67;;
21402;SDS011;10862;51.886;17.078;2023-03-15T01:53:47;12.23;;;11.73;;
21402;SDS011;10862;51.886;17.078;2023-03-15T01:56:18;11.10;;;10.60;;
21402;SDS011;10862;51.886;17.078;2023-03-15T01:58:44;13.60;;;12.90;;
21402;SDS011;10862;51.886;17.078;2023-03-15T02:01:11;10.50;;;10.03;;
21402;SDS011;10862;51.886;17.078;2023-03-15T02:03:40;11.77;;;11.27;;
21402;SDS011;10862;51.886;17.078;2023-03-15T02:06:13;11.37;;;10.87;;
21402;SDS011;10862;51.886;17.078;2023-03-15T02:08:44;13.33;;;12.73;;
21402;SDS011;10862;51.886;17.078;2023-03-15T02:11:15;12.13;;;11.53;;
21402;SDS011;10862;51.886;17.078;2023-03-15T02:13:44;11.73;;;11.23;;
21402;SDS011;10862;51.886;17.078;2023-03-15T02:16:12;12.77;;;12.17;;
21402;SDS011;10862;51.886;17.078;2023-03-15T02:18:38;13.43;;;12.73;;
21402;SDS011;10862;51.886;17.078;2023-03-15T02:23:32;10.73;;;10.23;;
21402;SDS011;10862;51.886;17.078;2023-03-15T02:26:11;12.60;;;12.00;;
21402;SDS011;10862;51.886;17.078;2023-03-15T02:28:42;13.10;;;12.50;;
21402;SDS011;10862;51.886;17.078;2023-03-15T02:31:09;12.80;;;12.20;;
21402;SDS011;10862;51.886;17.078;2023-03-15T02:33:53;13.30;;;12.70;;
21402;SDS011;10862;51.886;17.078;2023-03-15T02:36:24;12.17;;;11.67;;
21402;SDS011;10862;51.886;17.078;2023-03-15T02:38:51;12.33;;;11.77;;
21402;SDS011;10862;51.886;17.078;2023-03-15T02:41:37;15.27;;;14.47;;
21402;SDS011;10862;51.886;17.078;2023-03-15T02:44:26;13.53;;;12.93;;
21402;SDS011;10862;51.886;17.078;2023-03-15T02:46:52;14.23;;;13.53;;
21402;SDS011;10862;51.886;17.078;2023-03-15T02:49:21;14.50;;;13.80;;
21402;SDS011;10862;51.886;17.078;2023-03-15T02:51:50;15.07;;;14.37;;
21402;SDS011;10862;51.886;17.078;2023-03-15T02:54:16;16.80;;;15.80;;
21402;SDS011;10862;51.886;17.078;2023-03-15T02:56:42;14.83;;;14.13;;
21402;SDS011;10862;51.886;17.078;2023-03-15T02:59:07;14.43;;;13.83;;
21402;SDS011;10862;51.886;17.078;2023-03-15T03:01:33;15.63;;;14.50;;
21402;SDS011;10862;51.886;17.078;2023-03-15T03:04:01;14.70;;;14.00;;
21402;SDS011;10862;51.886;17.078;2023-03-15T03:06:27;14.47;;;13.80;;
21402;SDS011;10862;51.886;17.078;2023-03-15T03:08:53;13.83;;;13.23;;
21402;SDS011;10862;51.886;17.078;2023-03-15T03:11:18;13.87;;;13.27;;
21402;SDS011;10862;51.886;17.078;2023-03-15T03:13:44;14.33;;;13.67;;
21402;SDS011;10862;51.886;17.078;2023-03-15T03:16:10;13.87;;;13.27;;
21402;SDS011;10862;51.886;17.078;2023-03-15T03:18:36;14.30;;;13.63;;
21402;SDS011;10862;51.886;17.078;2023-03-15T03:21:04;14.40;;;13.70;;
21402;SDS011;10862;51.886;17.078;2023-03-15T03:23:31;15.40;;;14.70;;
21402;SDS011;10862;51.886;17.078;2023-03-15T03:25:58;16.10;;;15.30;;
21402;SDS011;10862;51.886;17.078;2023-03-15T03:28:25;14.03;;;13.43;;
21402;SDS011;10862;51.886;17.078;2023-03-15T03:30:53;14.47;;;13.80;;
21402;SDS011;10862;51.886;17.078;2023-03-15T03:33:20;15.07;;;14.37;;
21402;SDS011;10862;51.886;17.078;2023-03-15T03:35:47;6.03;;;5.83;;
21402;SDS011;10862;51.886;17.078;2023-03-15T03:38:13;7.37;;;7.07;;
21402;SDS011;10862;51.886;17.078;2023-03-15T03:40:40;10.77;;;10.10;;
21402;SDS011;10862;51.886;17.078;2023-03-15T03:43:06;11.37;;;10.87;;
21402;SDS011;10862;51.886;17.078;2023-03-15T03:45:33;11.13;;;10.63;;
21402;SDS011;10862;51.886;17.078;2023-03-15T03:47:59;6.97;;;6.67;;
21402;SDS011;10862;51.886;17.078;2023-03-15T03:50:25;9.27;;;8.70;;
21402;SDS011;10862;51.886;17.078;2023-03-15T03:52:51;7.10;;;6.80;;
21402;SDS011;10862;51.886;17.078;2023-03-15T03:55:17;5.93;;;5.73;;
21402;SDS011;10862;51.886;17.078;2023-03-15T03:57:42;5.10;;;4.90;;
21402;SDS011;10862;51.886;17.078;2023-03-15T04:00:09;6.43;;;6.13;;
21402;SDS011;10862;51.886;17.078;2023-03-15T04:02:40;5.87;;;5.67;;
21402;SDS011;10862;51.886;17.078;2023-03-15T04:05:07;6.10;;;5.90;;
21402;SDS011;10862;51.886;17.078;2023-03-15T04:07:36;5.80;;;5.60;;
21402;SDS011;10862;51.886;17.078;2023-03-15T04:10:03;8.37;;;7.97;;
21402;SDS011;10862;51.886;17.078;2023-03-15T04:12:29;6.50;;;6.20;;
21402;SDS011;10862;51.886;17.078;2023-03-15T04:14:55;6.90;;;6.60;;
21402;SDS011;10862;51.886;17.078;2023-03-15T04:17:21;7.70;;;7.40;;
21402;SDS011;10862;51.886;17.078;2023-03-15T04:19:47;8.10;;;7.80;;
21402;SDS011;10862;51.886;17.078;2023-03-15T04:22:13;6.70;;;6.40;;
21402;SDS011;10862;51.886;17.078;2023-03-15T04:24:39;6.60;;;6.30;;
21402;SDS011;10862;51.886;17.078;2023-03-15T04:27:05;6.40;;;6.10;;
21402;SDS011;10862;51.886;17.078;2023-03-15T04:29:31;6.00;;;5.80;;
21402;SDS011;10862;51.886;17.078;2023-03-15T04:31:57;8.10;;;7.70;;
21402;SDS011;10862;51.886;17.078;2023-03-15T04:34:29;8.00;;;7.70;;
21402;SDS011;10862;51.886;17.078;2023-03-15T04:36:55;10.07;;;9.47;;
21402;SDS011;10862;51.886;17.078;2023-03-15T04:39:22;8.60;;;8.20;;
21402;SDS011;10862;51.886;17.078;2023-03-15T04:41:48;11.73;;;11.13;;
21402;SDS011;10862;51.886;17.078;2023-03-15T04:44:14;10.17;;;9.53;;
21402;SDS011;10862;51.886;17.078;2023-03-15T04:46:40;9.80;;;9.40;;
21402;SDS011;10862;51.886;17.078;2023-03-15T04:49:07;10.30;;;9.90;;
21402;SDS011;10862;51.886;17.078;2023-03-15T04:51:33;11.03;;;10.43;;
21402;SDS011;10862;51.886;17.078;2023-03-15T04:53:59;8.90;;;8.50;;
21402;SDS011;10862;51.886;17.078;2023-03-15T04:56:25;7.73;;;7.43;;
21402;SDS011;10862;51.886;17.078;2023-03-15T04:58:52;9.03;;;8.63;;
21402;SDS011;10862;51.886;17.078;2023-03-15T05:01:18;11.47;;;10.60;;
21402;SDS011;10862;51.886;17.078;2023-03-15T05:03:44;11.10;;;10.60;;
21402;SDS011;10862;51.886;17.078;2023-03-15T05:06:09;11.30;;;10.70;;
21402;SDS011;10862;51.886;17.078;2023-03-15T05:08:35;9.73;;;9.10;;
21402;SDS011;10862;51.886;17.078;2023-03-15T05:11:02;11.68;;;10.88;;
21402;SDS011;10862;51.886;17.078;2023-03-15T05:13:29;8.60;;;8.20;;
21402;SDS011;10862;51.886;17.078;2023-03-15T05:15:54;12.93;;;12.23;;
21402;SDS011;10862;51.886;17.078;2023-03-15T05:18:21;9.40;;;8.90;;
21402;SDS011;10862;51.886;17.078;2023-03-15T05:20:48;9.77;;;9.37;;
21402;SDS011;10862;51.886;17.078;2023-03-15T05:23:14;8.20;;;7.83;;
21402;SDS011;10862;51.886;17.078;2023-03-15T05:25:40;8.47;;;8.10;;
21402;SDS011;10862;51.886;17.078;2023-03-15T05:28:05;9.13;;;8.73;;
21402;SDS011;10862;51.886;17.078;2023-03-15T05:30:31;9.13;;;8.73;;
21402;SDS011;10862;51.886;17.078;2023-03-15T05:32:57;9.63;;;9.23;;
21402;SDS011;10862;51.886;17.078;2023-03-15T05:35:23;8.63;;;8.27;;
21402;SDS011;10862;51.886;17.078;2023-03-15T05:37:51;8.63;;;8.23;;
21402;SDS011;10862;51.886;17.078;2023-03-15T05:40:19;8.70;;;8.20;;
21402;SDS011;10862;51.886;17.078;2023-03-15T05:42:45;8.17;;;7.87;;
21402;SDS011;10862;51.886;17.078;2023-03-15T05:45:10;11.03;;;10.53;;
21402;SDS011;10862;51.886;17.078;2023-03-15T05:47:36;10.93;;;10.43;;
21402;SDS011;10862;51.886;17.078;2023-03-15T05:50:02;11.43;;;10.87;;
21402;SDS011;10862;51.886;17.078;2023-03-15T05:52:29;11.87;;;11.37;;
21402;SDS011;10862;51.886;17.078;2023-03-15T05:54:55;13.10;;;12.40;;
21402;SDS011;10862;51.886;17.078;2023-03-15T05:57:21;10.93;;;10.43;;
21402;SDS011;10862;51.886;17.078;2023-03-15T05:59:47;11.03;;;10.53;;
21402;SDS011;10862;51.886;17.078;2023-03-15T06:02:12;11.37;;;10.87;;
21402;SDS011;10862;51.886;17.078;2023-03-15T06:04:38;20.80;;;11.20;;
21402;SDS011;10862;51.886;17.078;2023-03-15T06:07:04;10.57;;;10.17;;
21402;SDS011;10862;51.886;17.078;2023-03-15T06:09:30;11.53;;;11.03;;
21402;SDS011;10862;51.886;17.078;2023-03-15T06:11:56;11.17;;;10.67;;
21402;SDS011;10862;51.886;17.078;2023-03-15T06:14:23;9.97;;;9.57;;
21402;SDS011;10862;51.886;17.078;2023-03-15T06:16:50;12.63;;;11.77;;
21402;SDS011;10862;51.886;17.078;2023-03-15T06:19:16;11.70;;;11.13;;
21402;SDS011;10862;51.886;17.078;2023-03-15T06:21:41;10.77;;;10.27;;
21402;SDS011;10862;51.886;17.078;2023-03-15T06:24:08;13.53;;;12.87;;
21402;SDS011;10862;51.886;17.078;2023-03-15T06:26:33;10.20;;;9.80;;
21402;SDS011;10862;51.886;17.078;2023-03-15T06:28:59;11.43;;;10.93;;
21402;SDS011;10862;51.886;17.078;2023-03-15T06:31:25;11.83;;;11.33;;
21402;SDS011;10862;51.886;17.078;2023-03-15T06:33:50;13.83;;;13.10;;
21402;SDS011;10862;51.886;17.078;2023-03-15T06:36:16;14.03;;;13.43;;
21402;SDS011;10862;51.886;17.078;2023-03-15T06:38:42;13.63;;;13.03;;
21402;SDS011;10862;51.886;17.078;2023-03-15T06:41:07;13.13;;;12.53;;
21402;SDS011;10862;51.886;17.078;2023-03-15T06:43:33;17.17;;;16.07;;
21402;SDS011;10862;51.886;17.078;2023-03-15T06:45:59;12.03;;;11.53;;
21402;SDS011;10862;51.886;17.078;2023-03-15T06:48:26;15.37;;;14.67;;
21402;SDS011;10862;51.886;17.078;2023-03-15T06:50:52;13.13;;;12.53;;
21402;SDS011;10862;51.886;17.078;2023-03-15T06:53:18;15.37;;;14.67;;
21402;SDS011;10862;51.886;17.078;2023-03-15T06:55:44;13.63;;;13.03;;
21402;SDS011;10862;51.886;17.078;2023-03-15T06:58:11;13.77;;;13.17;;
21402;SDS011;10862;51.886;17.078;2023-03-15T07:00:37;17.20;;;16.30;;
21402;SDS011;10862;51.886;17.078;2023-03-15T07:03:03;11.07;;;10.47;;
21402;SDS011;10862;51.886;17.078;2023-03-15T07:05:29;10.03;;;9.63;;
21402;SDS011;10862;51.886;17.078;2023-03-15T07:07:55;10.30;;;9.90;;
21402;SDS011;10862;51.886;17.078;2023-03-15T07:10:21;9.93;;;9.53;;
21402;SDS011;10862;51.886;17.078;2023-03-15T07:12:47;9.40;;;8.90;;
21402;SDS011;10862;51.886;17.078;2023-03-15T07:15:13;7.60;;;7.20;;
21402;SDS011;10862;51.886;17.078;2023-03-15T07:17:39;8.20;;;7.80;;
21402;SDS011;10862;51.886;17.078;2023-03-15T07:20:05;7.97;;;7.67;;
21402;SDS011;10862;51.886;17.078;2023-03-15T07:22:31;13.63;;;8.80;;
21402;SDS011;10862;51.886;17.078;2023-03-15T07:24:58;8.60;;;7.80;;
21402;SDS011;10862;51.886;17.078;2023-03-15T07:27:23;7.97;;;7.67;;
21402;SDS011;10862;51.886;17.078;2023-03-15T07:29:49;8.00;;;7.70;;
21402;SDS011;10862;51.886;17.078;2023-03-15T07:32:15;7.17;;;6.87;;
21402;SDS011;10862;51.886;17.078;2023-03-15T07:34:41;7.63;;;7.33;;
21402;SDS011;10862;51.886;17.078;2023-03-15T07:37:07;7.60;;;7.30;;
21402;SDS011;10862;51.886;17.078;2023-03-15T07:39:33;7.37;;;7.07;;
21402;SDS011;10862;51.886;17.078;2023-03-15T07:41:59;19.13;;;10.27;;
21402;SDS011;10862;51.886;17.078;2023-03-15T07:44:24;11.30;;;9.53;;
21402;SDS011;10862;51.886;17.078;2023-03-15T07:46:50;8.70;;;8.30;;
21402;SDS011;10862;51.886;17.078;2023-03-15T07:49:16;10.07;;;9.37;;
21402;SDS011;10862;51.886;17.078;2023-03-15T07:51:42;9.63;;;8.93;;
21402;SDS011;10862;51.886;17.078;2023-03-15T07:54:08;14.60;;;13.80;;
21402;SDS011;10862;51.886;17.078;2023-03-15T07:56:34;11.03;;;10.53;;
21402;SDS011;10862;51.886;17.078;2023-03-15T07:58:59;10.20;;;9.80;;
21402;SDS011;10862;51.886;17.078;2023-03-15T08:01:25;10.60;;;10.20;;
21402;SDS011;10862;51.886;17.078;2023-03-15T08:03:51;12.10;;;11.60;;
21402;SDS011;10862;51.886;17.078;2023-03-15T08:06:17;11.83;;;11.23;;
21402;SDS011;10862;51.886;17.078;2023-03-15T08:08:42;12.33;;;11.83;;
21402;SDS011;10862;51.886;17.078;2023-03-15T08:11:08;12.67;;;12.13;;
21402;SDS011;10862;51.886;17.078;2023-03-15T08:13:34;12.40;;;11.90;;
21402;SDS011;10862;51.886;17.078;2023-03-15T08:16:00;12.13;;;11.63;;
21402;SDS011;10862;51.886;17.078;2023-03-15T08:18:26;15.50;;;14.57;;
21402;SDS011;10862;51.886;17.078;2023-03-15T08:20:55;13.20;;;12.63;;
21402;SDS011;10862;51.886;17.078;2023-03-15T08:23:21;12.00;;;11.30;;
21402;SDS011;10862;51.886;17.078;2023-03-15T08:25:47;13.53;;;12.93;;
21402;SDS011;10862;51.886;17.078;2023-03-15T08:28:14;16.10;;;15.17;;
21402;SDS011;10862;51.886;17.078;2023-03-15T08:30:40;15.17;;;14.37;;
21402;SDS011;10862;51.886;17.078;2023-03-15T08:33:06;13.87;;;13.27;;
21402;SDS011;10862;51.886;17.078;2023-03-15T08:35:32;13.93;;;13.33;;
21402;SDS011;10862;51.886;17.078;2023-03-15T08:37:58;12.27;;;11.77;;
21402;SDS011;10862;51.886;17.078;2023-03-15T08:40:26;13.20;;;12.60;;
21402;SDS011;10862;51.886;17.078;2023-03-15T08:42:53;14.27;;;13.67;;
21402;SDS011;10862;51.886;17.078;2023-03-15T08:45:20;14.60;;;13.80;;
21402;SDS011;10862;51.886;17.078;2023-03-15T08:47:56;14.63;;;14.03;;
21402;SDS011;10862;51.886;17.078;2023-03-15T08:50:23;16.47;;;15.77;;
21402;SDS011;10862;51.886;17.078;2023-03-15T08:52:50;14.40;;;13.80;;
21402;SDS011;10862;51.886;17.078;2023-03-15T08:55:16;15.93;;;15.23;;
21402;SDS011;10862;51.886;17.078;2023-03-15T08:57:42;15.60;;;14.90;;
21402;SDS011;10862;51.886;17.078;2023-03-15T09:00:08;14.73;;;14.13;;
21402;SDS011;10862;51.886;17.078;2023-03-15T09:02:45;14.10;;;13.43;;
21402;SDS011;10862;51.886;17.078;2023-03-15T09:05:16;15.83;;;15.13;;
21402;SDS011;10862;51.886;17.078;2023-03-15T09:07:43;17.47;;;16.57;;
21402;SDS011;10862;51.886;17.078;2023-03-15T09:10:09;17.27;;;16.23;;
21402;SDS011;10862;51.886;17.078;2023-03-15T09:12:43;17.00;;;16.10;;
21402;SDS011;10862;51.886;17.078;2023-03-15T09:15:10;15.27;;;14.57;;
21402;SDS011;10862;51.886;17.078;2023-03-15T09:17:37;15.67;;;14.97;;
21402;SDS011;10862;51.886;17.078;2023-03-15T09:20:04;16.53;;;15.83;;
21402;SDS011;10862;51.886;17.078;2023-03-15T09:22:38;17.10;;;16.20;;
21402;SDS011;10862;51.886;17.078;2023-03-15T09:25:07;15.67;;;14.97;;
21402;SDS011;10862;51.886;17.078;2023-03-15T09:27:34;19.07;;;16.93;;
21402;SDS011;10862;51.886;17.078;2023-03-15T09:30:00;15.07;;;13.97;;
21402;SDS011;10862;51.886;17.078;2023-03-15T09:32:26;17.73;;;16.73;;
21402;SDS011;10862;51.886;17.078;2023-03-15T09:34:51;16.17;;;15.47;;
21402;SDS011;10862;51.886;17.078;2023-03-15T09:37:17;18.87;;;17.83;;
21402;SDS011;10862;51.886;17.078;2023-03-15T09:39:45;16.93;;;16.20;;
21402;SDS011;10862;51.886;17.078;2023-03-15T09:42:22;15.07;;;14.37;;
21402;SDS011;10862;51.886;17.078;2023-03-15T09:44:51;17.10;;;16.30;;
21402;SDS011;10862;51.886;17.078;2023-03-15T09:50:19;15.63;;;14.93;;
21402;SDS011;10862;51.886;17.078;2023-03-15T09:52:54;17.30;;;16.17;;
21402;SDS011;10862;51.886;17.078;2023-03-15T09:55:26;14.43;;;13.83;;
21402;SDS011;10862;51.886;17.078;2023-03-15T09:57:59;16.53;;;15.73;;
21402;SDS011;10862;51.886;17.078;2023-03-15T10:03:10;15.57;;;14.87;;
21402;SDS011;10862;51.886;17.078;2023-03-15T10:05:46;17.13;;;16.33;;
21402;SDS011;10862;51.886;17.078;2023-03-15T10:08:16;14.70;;;14.10;;
21402;SDS011;10862;51.886;17.078;2023-03-15T10:10:46;16.30;;;15.60;;
21402;SDS011;10862;51.886;17.078;2023-03-15T10:13:18;13.50;;;12.90;;
21402;SDS011;10862;51.886;17.078;2023-03-15T10:15:59;16.93;;;14.03;;
21402;SDS011;10862;51.886;17.078;2023-03-15T10:23:52;15.73;;;15.03;;
21402;SDS011;10862;51.886;17.078;2023-03-15T10:26:21;14.87;;;14.17;;
21402;SDS011;10862;51.886;17.078;2023-03-15T10:28:49;13.07;;;12.47;;
21402;SDS011;10862;51.886;17.078;2023-03-15T10:31:18;14.83;;;14.13;;
21402;SDS011;10862;51.886;17.078;2023-03-15T10:33:47;14.60;;;14.00;;
21402;SDS011;10862;51.886;17.078;2023-03-15T10:36:19;14.47;;;13.87;;
21402;SDS011;10862;51.886;17.078;2023-03-15T10:38:46;13.93;;;13.33;;
21402;SDS011;10862;51.886;17.078;2023-03-15T10:41:26;15.93;;;15.00;;
21402;SDS011;10862;51.886;17.078;2023-03-15T10:44:13;16.53;;;15.73;;
21402;SDS011;10862;51.886;17.078;2023-03-15T10:46:57;17.03;;;16.10;;
21402;SDS011;10862;51.886;17.078;2023-03-15T10:49:27;18.07;;;16.80;;
21402;SDS011;10862;51.886;17.078;2023-03-15T10:52:00;18.00;;;17.20;;
21402;SDS011;10862;51.886;17.078;2023-03-15T10:54:29;16.57;;;15.87;;
21402;SDS011;10862;51.886;17.078;2023-03-15T10:59:34;19.37;;;18.47;;
21402;SDS011;10862;51.886;17.078;2023-03-15T11:04:39;19.13;;;17.90;;
21402;SDS011;10862;51.886;17.078;2023-03-15T11:07:06;18.23;;;17.43;;
21402;SDS011;10862;51.886;17.078;2023-03-15T11:09:39;19.40;;;18.50;;
21402;SDS011;10862;51.886;17.078;2023-03-15T11:12:15;21.50;;;20.20;;
21402;SDS011;10862;51.886;17.078;2023-03-15T11:15:03;20.53;;;19.50;;
21402;SDS011;10862;51.886;17.078;2023-03-15T11:17:35;23.80;;;21.80;;
21402;SDS011;10862;51.886;17.078;2023-03-15T11:20:26;22.40;;;20.43;;
21402;SDS011;10862;51.886;17.078;2023-03-15T11:23:17;19.63;;;18.47;;
21402;SDS011;10862;51.886;17.078;2023-03-15T11:25:46;92.23;;;40.07;;
21402;SDS011;10862;51.886;17.078;2023-03-15T11:28:15;49.20;;;31.63;;
21402;SDS011;10862;51.886;17.078;2023-03-15T11:30:47;22.63;;;21.20;;
21402;SDS011;10862;51.886;17.078;2023-03-15T11:36:04;32.93;;;23.83;;
21402;SDS011;10862;51.886;17.078;2023-03-15T11:38:39;50.00;;;30.97;;
21402;SDS011;10862;51.886;17.078;2023-03-15T11:44:07;54.50;;;24.30;;
21402;SDS011;10862;51.886;17.078;2023-03-15T11:52:16;31.57;;;22.10;;
21402;SDS011;10862;51.886;17.078;2023-03-15T11:54:43;99.43;;;35.53;;
21402;SDS011;10862;51.886;17.078;2023-03-15T11:57:53;351.53;;;86.83;;
21402;SDS011;10862;51.886;17.078;2023-03-15T12:05:39;19.93;;;18.10;;
21402;SDS011;10862;51.886;17.078;2023-03-15T12:08:22;33.10;;;22.80;;
21402;SDS011;10862;51.886;17.078;2023-03-15T12:11:35;26.27;;;22.00;;
21402;SDS011;10862;51.886;17.078;2023-03-15T12:16:27;23.50;;;20.97;;
21402;SDS011;10862;51.886;17.078;2023-03-15T12:18:57;125.27;;;46.33;;
21402;SDS011;10862;51.886;17.078;2023-03-15T12:21:48;94.60;;;34.13;;
21402;SDS011;10862;51.886;17.078;2023-03-15T12:24:26;18.50;;;16.97;;
21402;SDS011;10862;51.886;17.078;2023-03-15T12:26:58;25.07;;;22.63;;
21402;SDS011;10862;51.886;17.078;2023-03-15T12:29:45;19.23;;;17.73;;
21402;SDS011;10862;51.886;17.078;2023-03-15T12:34:49;37.00;;;22.67;;
21402;SDS011;10862;51.886;17.078;2023-03-15T12:39:53;21.40;;;19.83;;
21402;SDS011;10862;51.886;17.078;2023-03-15T12:55:46;25.57;;;23.00;;
21402;SDS011;10862;51.886;17.078;2023-03-15T12:58:16;24.93;;;21.13;;
21402;SDS011;10862;51.886;17.078;2023-03-15T13:00:45;43.03;;;28.33;;
21402;SDS011;10862;51.886;17.078;2023-03-15T13:03:19;38.13;;;28.30;;
21402;SDS011;10862;51.886;17.078;2023-03-15T13:11:44;40.73;;;25.30;;
21402;SDS011;10862;51.886;17.078;2023-03-15T13:25:41;128.53;;;58.90;;
21402;SDS011;10862;51.886;17.078;2023-03-15T13:28:22;44.80;;;33.23;;
21402;SDS011;10862;51.886;17.078;2023-03-15T13:30:52;37.90;;;28.07;;
21402;SDS011;10862;51.886;17.078;2023-03-15T13:36:04;30.47;;;21.53;;
21402;SDS011;10862;51.886;17.078;2023-03-15T13:38:42;26.90;;;22.30;;
21402;SDS011;10862;51.886;17.078;2023-03-15T13:41:25;31.87;;;26.10;;
21402;SDS011;10862;51.886;17.078;2023-03-15T13:43:53;30.23;;;26.90;;
21402;SDS011;10862;51.886;17.078;2023-03-15T13:46:21;25.10;;;22.87;;
21402;SDS011;10862;51.886;17.078;2023-03-15T13:48:49;22.03;;;19.93;;
21402;SDS011;10862;51.886;17.078;2023-03-15T13:53:47;27.10;;;24.30;;
21402;SDS011;10862;51.886;17.078;2023-03-15T13:59:59;60.50;;;36.77;;
21402;SDS011;10862;51.886;17.078;2023-03-15T14:05:10;34.37;;;27.83;;
21402;SDS011;10862;51.886;17.078;2023-03-15T14:07:42;24.03;;;21.77;;
21402;SDS011;10862;51.886;17.078;2023-03-15T14:12:46;85.87;;;46.40;;
21402;SDS011;10862;51.886;17.078;2023-03-15T14:18:25;275.17;;;96.50;;
21402;SDS011;10862;51.886;17.078;2023-03-15T14:20:45;130.37;;;48.57;;
21402;SDS011;10862;51.886;17.078;2023-03-15T14:23:17;61.93;;;30.33;;
21402;SDS011;10862;51.886;17.078;2023-03-15T14:25:49;22.70;;;20.80;;
21402;SDS011;10862;51.886;17.078;2023-03-15T14:28:17;45.20;;;26.63;;
21402;SDS011;10862;51.886;17.078;2023-03-15T14:30:49;24.27;;;22.33;;
21402;SDS011;10862;51.886;17.078;2023-03-15T14:33:27;72.33;;;41.17;;
21402;SDS011;10862;51.886;17.078;2023-03-15T14:36:00;220.03;;;73.07;;
21402;SDS011;10862;51.886;17.078;2023-03-15T14:38:33;110.53;;;43.03;;
21402;SDS011;10862;51.886;17.078;2023-03-15T14:44:00;32.27;;;26.00;;
21402;SDS011;10862;51.886;17.078;2023-03-15T14:46:29;47.93;;;30.60;;
21402;SDS011;10862;51.886;17.078;2023-03-15T14:48:55;27.97;;;25.23;;
21402;SDS011;10862;51.886;17.078;2023-03-15T14:51:21;33.37;;;29.13;;
21402;SDS011;10862;51.886;17.078;2023-03-15T14:53:50;21.17;;;19.33;;
21402;SDS011;10862;51.886;17.078;2023-03-15T14:56:18;19.40;;;17.97;;
21402;SDS011;10862;51.886;17.078;2023-03-15T14:58:44;20.80;;;19.23;;
21402;SDS011;10862;51.886;17.078;2023-03-15T15:01:14;19.20;;;17.80;;
21402;SDS011;10862;51.886;17.078;2023-03-15T15:03:45;19.57;;;18.17;;
21402;SDS011;10862;51.886;17.078;2023-03-15T15:06:17;33.03;;;25.80;;
21402;SDS011;10862;51.886;17.078;2023-03-15T15:08:44;24.03;;;21.43;;
21402;SDS011;10862;51.886;17.078;2023-03-15T15:11:10;20.17;;;18.40;;
21402;SDS011;10862;51.886;17.078;2023-03-15T15:13:37;21.17;;;19.07;;
21402;SDS011;10862;51.886;17.078;2023-03-15T15:16:03;21.90;;;19.27;;
21402;SDS011;10862;51.886;17.078;2023-03-15T15:18:30;20.77;;;18.83;;
21402;SDS011;10862;51.886;17.078;2023-03-15T15:20:59;47.73;;;31.43;;
21402;SDS011;10862;51.886;17.078;2023-03-15T15:25:58;25.77;;;22.93;;
21402;SDS011;10862;51.886;17.078;2023-03-15T15:28:26;24.53;;;20.00;;
21402;SDS011;10862;51.886;17.078;2023-03-15T15:30:52;16.50;;;15.37;;
21402;SDS011;10862;51.886;17.078;2023-03-15T15:33:18;86.00;;;40.13;;
21402;SDS011;10862;51.886;17.078;2023-03-15T15:35:44;49.40;;;30.43;;
21402;SDS011;10862;51.886;17.078;2023-03-15T15:38:10;140.83;;;69.37;;
21402;SDS011;10862;51.886;17.078;2023-03-15T15:40:37;56.87;;;33.60;;
21402;SDS011;10862;51.886;17.078;2023-03-15T15:43:03;74.37;;;39.97;;
21402;SDS011;10862;51.886;17.078;2023-03-15T15:45:30;35.57;;;26.23;;
21402;SDS011;10862;51.886;17.078;2023-03-15T15:47:58;125.13;;;54.73;;
21402;SDS011;10862;51.886;17.078;2023-03-15T15:50:30;128.97;;;49.43;;
21402;SDS011;10862;51.886;17.078;2023-03-15T15:52:57;41.00;;;23.57;;
21402;SDS011;10862;51.886;17.078;2023-03-15T15:55:25;23.00;;;20.97;;
21402;SDS011;10862;51.886;17.078;2023-03-15T15:57:55;31.57;;;27.93;;
21402;SDS011;10862;51.886;17.078;2023-03-15T16:00:23;25.70;;;21.43;;
21402;SDS011;10862;51.886;17.078;2023-03-15T16:02:50;35.20;;;23.67;;